Time;durP1;ratioP1;P1;durP2;ratioP2;P2;SDS_P1;SDS_P2;PMS_P1;PMS_P2;Temp;Humidity;BMP_temperature;BMP_pressure;BME280_temperature;BME280_humidity;BME280_pressure;Samples;Min_cycle;Max_cycle;Signal;HPM_P1;HPM_P2
2022/03/11 00:01:49;;;;;;;13.28;9.15;;;;;;;-4.17;55.06;98028.77;1752211;80;21044;-83
2022/03/11 00:04:15;;;;;;;15.45;9.30;;;;;;;-4.20;55.16;98030.16;1752068;82;21041;-83
2022/03/11 00:06:41;;;;;;;11.03;9.08;;;;;;;-4.20;55.38;98027.61;1752080;82;21000;-83
2022/03/11 00:09:06;;;;;;;11.80;8.48;;;;;;;-4.17;55.53;98024.52;1752315;82;21080;-83
2022/03/11 00:11:32;;;;;;;14.38;10.32;;;;;;;-4.12;55.33;98031.54;1752204;82;21065;-83
2022/03/11 00:13:58;;;;;;;14.15;9.38;;;;;;;-4.19;54.96;98030.09;1752115;82;21514;-83
2022/03/11 00:16:23;;;;;;;12.60;9.43;;;;;;;-4.17;55.45;98028.77;1752080;82;20934;-83
2022/03/11 00:18:50;;;;;;;11.68;8.98;;;;;;;-4.14;55.32;98027.40;1752311;82;21065;-83
2022/03/11 00:21:15;;;;;;;12.55;9.33;;;;;;;-4.10;55.23;98031.48;1752378;82;21444;-83
2022/03/11 00:23:42;;;;;;;14.83;9.25;;;;;;;-4.13;55.41;98024.80;1752024;82;21049;-83
2022/03/11 00:26:09;;;;;;;12.20;8.60;;;;;;;-4.12;55.62;98026.45;1752188;82;21096;-83
2022/03/11 00:28:36;;;;;;;10.70;9.28;;;;;;;-4.13;56.18;98029.05;1751590;81;21106;-83
2022/03/11 00:31:04;;;;;;;12.07;8.53;;;;;;;-4.11;56.54;98032.36;1746453;82;21042;-83
2022/03/11 00:33:30;;;;;;;14.10;9.25;;;;;;;-4.13;56.70;98031.59;1750960;82;21128;-83
2022/03/11 00:35:56;;;;;;;12.10;9.05;;;;;;;-4.19;56.47;98026.73;1751459;82;20965;-83
2022/03/11 00:38:22;;;;;;;12.40;8.93;;;;;;;-4.26;56.58;98028.63;1751507;82;21045;-83
2022/03/11 00:40:51;;;;;;;14.03;9.03;;;;;;;-4.29;56.26;98032.53;1750991;82;21128;-84
2022/03/11 00:43:18;;;;;;;12.45;9.10;;;;;;;-4.33;56.58;98028.01;1751109;82;21060;-83
2022/03/11 00:45:44;;;;;;;11.80;8.85;;;;;;;-4.39;56.72;98031.20;1751442;82;21026;-84
2022/03/11 00:48:10;;;;;;;13.13;8.85;;;;;;;-4.48;56.73;98023.87;1751352;82;21104;-83
2022/03/11 00:50:35;;;;;;;11.05;9.28;;;;;;;-4.54;56.86;98026.17;1751347;82;21435;-83
2022/03/11 00:53:02;;;;;;;12.28;8.98;;;;;;;-4.60;57.25;98020.00;1751358;82;20993;-83
2022/03/11 00:55:28;;;;;;;11.70;9.30;;;;;;;-4.66;57.50;98015.97;1751277;82;21001;-83
2022/03/11 00:57:54;;;;;;;10.95;8.88;;;;;;;-4.71;57.10;98014.46;1751492;82;21036;-83
2022/03/11 01:00:19;;;;;;;15.88;9.50;;;;;;;-4.75;57.74;98019.22;1751432;82;21044;-83
2022/03/11 01:02:45;;;;;;;12.82;8.80;;;;;;;-4.81;57.26;98014.34;1751296;82;21337;-83
2022/03/11 01:05:11;;;;;;;14.23;9.23;;;;;;;-4.82;57.64;98012.69;1751094;82;20961;-83
2022/03/11 01:07:37;;;;;;;15.23;9.95;;;;;;;-4.87;57.48;98011.13;1751347;82;20985;-83
2022/03/11 01:10:05;;;;;;;15.80;10.75;;;;;;;-4.88;57.69;98013.27;1751238;82;21025;-84
2022/03/11 01:12:31;;;;;;;12.90;9.85;;;;;;;-4.88;57.84;98013.72;1751178;82;21418;-83
2022/03/11 01:14:57;;;;;;;13.35;9.00;;;;;;;-4.91;57.90;98010.81;1751164;82;21032;-83
2022/03/11 01:17:22;;;;;;;14.43;9.35;;;;;;;-4.97;58.19;98007.64;1746577;82;21001;-83
2022/03/11 01:19:48;;;;;;;12.65;8.80;;;;;;;-5.00;58.22;98004.77;1751185;82;21458;-83
2022/03/11 01:22:14;;;;;;;11.68;8.60;;;;;;;-4.99;58.14;98007.70;1751445;82;21048;-83
2022/03/11 01:24:40;;;;;;;13.43;10.00;;;;;;;-4.98;58.13;98002.19;1751168;82;21000;-83
2022/03/11 01:27:05;;;;;;;13.98;9.50;;;;;;;-5.00;58.22;98007.30;1751132;82;21042;-83
2022/03/11 01:29:32;;;;;;;14.95;9.65;;;;;;;-5.00;58.49;98006.47;1753847;81;21387;-84
2022/03/11 01:31:57;;;;;;;12.90;9.33;;;;;;;-5.03;58.34;98002.33;1755057;82;20993;-83
2022/03/11 01:34:23;;;;;;;14.43;9.73;;;;;;;-5.02;58.23;98007.80;1754699;82;20985;-83
2022/03/11 01:36:49;;;;;;;15.50;9.00;;;;;;;-5.03;58.21;98007.84;1754879;82;21455;-83
2022/03/11 01:39:14;;;;;;;13.40;9.48;;;;;;;-5.05;58.25;98005.33;1754809;82;20969;-83
2022/03/11 01:41:41;;;;;;;13.68;10.40;;;;;;;-5.05;58.38;98007.86;1753652;82;20997;-83
2022/03/11 01:44:08;;;;;;;11.38;8.28;;;;;;;-5.09;58.64;98002.94;1729548;82;21047;-83
2022/03/11 01:46:35;;;;;;;14.98;9.60;;;;;;;-5.14;58.35;98007.71;1754634;82;20973;-83
2022/03/11 01:49:02;;;;;;;14.87;9.33;;;;;;;-5.14;58.78;98006.88;1754696;82;21550;-83
2022/03/11 01:51:31;;;;;;;11.85;8.78;;;;;;;-5.15;58.99;98008.59;1750522;80;20981;-83
2022/03/11 01:53:56;;;;;;;13.28;8.85;;;;;;;-5.17;59.11;98001.91;1737333;82;21068;-83
2022/03/11 01:56:23;;;;;;;12.98;8.98;;;;;;;-5.20;59.20;98009.17;1754763;82;21036;-83
2022/03/11 01:58:52;;;;;;;13.18;8.83;;;;;;;-5.25;58.92;98007.19;1754726;82;21001;-83
2022/03/11 02:01:18;;;;;;;12.00;9.05;;;;;;;-5.28;58.82;98006.02;1753909;82;21067;-83
2022/03/11 02:03:44;;;;;;;12.55;8.40;;;;;;;-5.32;59.07;98001.09;1755060;82;21088;-83
2022/03/11 02:06:10;;;;;;;12.78;8.93;;;;;;;-5.34;59.41;98000.31;1753135;82;21368;-83
2022/03/11 02:08:35;;;;;;;12.60;8.78;;;;;;;-5.37;59.48;98000.38;1754679;82;20996;-83
2022/03/11 02:11:03;;;;;;;13.83;8.78;;;;;;;-5.37;59.59;97997.84;1753825;82;21005;-83
2022/03/11 02:13:44;;;;;;;13.30;9.33;;;;;;;-5.40;59.55;97994.14;1754453;82;21057;-83
2022/03/11 02:16:18;;;;;;;9.60;8.60;;;;;;;-5.45;59.40;97995.11;1754809;82;21431;-83
2022/03/11 02:18:44;;;;;;;12.30;8.80;;;;;;;-5.49;59.08;97997.78;1754497;82;21387;-83
2022/03/11 02:21:10;;;;;;;13.18;8.63;;;;;;;-5.57;59.37;98000.95;1754775;82;20969;-83
2022/03/11 02:23:47;;;;;;;11.12;7.87;;;;;;;-5.58;59.64;98003.09;1754542;82;21000;-83
2022/03/11 02:26:17;;;;;;;11.60;8.80;;;;;;;-5.61;59.65;97998.13;1754548;82;21533;-83
2022/03/11 02:28:46;;;;;;;13.18;9.35;;;;;;;-5.60;59.23;97999.34;1750035;82;21026;-83
2022/03/11 02:31:12;;;;;;;9.33;7.83;;;;;;;-5.54;59.59;98001.69;1741181;82;20954;-83
2022/03/11 02:33:38;;;;;;;11.00;8.05;;;;;;;-5.51;59.41;97999.09;1740949;81;21376;-83
2022/03/11 02:36:04;;;;;;;9.35;7.37;;;;;;;-5.52;59.39;97996.17;1740854;82;21001;-83
2022/03/11 02:38:30;;;;;;;10.30;8.08;;;;;;;-5.50;59.13;98002.02;1741185;82;21053;-83
2022/03/11 02:40:56;;;;;;;12.30;8.75;;;;;;;-5.46;59.35;97996.42;1740757;82;21140;-82
2022/03/11 02:43:23;;;;;;;11.83;8.25;;;;;;;-5.42;59.38;97991.66;1740800;82;21387;-83
2022/03/11 02:45:48;;;;;;;12.20;8.40;;;;;;;-5.37;59.49;98001.23;1740982;82;21024;-83
2022/03/11 02:48:14;;;;;;;13.25;9.18;;;;;;;-5.34;59.38;97998.61;1740832;82;21494;-83
2022/03/11 02:50:40;;;;;;;8.88;7.60;;;;;;;-5.34;59.28;97992.72;1740917;81;20994;-83
2022/03/11 02:53:05;;;;;;;12.80;8.80;;;;;;;-5.33;59.08;98000.70;1736637;81;20974;-83
2022/03/11 02:55:31;;;;;;;10.50;8.58;;;;;;;-5.34;59.24;98003.67;1740885;82;21329;-83
2022/03/11 02:57:57;;;;;;;10.80;9.13;;;;;;;-5.35;58.98;98004.98;1740944;82;20990;-83
2022/03/11 03:00:23;;;;;;;9.85;7.42;;;;;;;-5.38;58.85;98003.78;1740938;82;20930;-83
2022/03/11 03:02:48;;;;;;;10.05;7.50;;;;;;;-5.44;58.63;98004.36;1741015;82;20965;-83
2022/03/11 03:05:15;;;;;;;13.48;8.35;;;;;;;-5.38;59.13;98002.08;1740939;82;21026;-83
2022/03/11 03:07:41;;;;;;;10.08;8.20;;;;;;;-5.36;59.37;97999.53;1741064;82;20998;-83
2022/03/11 03:10:08;;;;;;;11.15;8.15;;;;;;;-5.37;59.47;97999.11;1741043;82;21013;-83
2022/03/11 03:12:35;;;;;;;13.58;10.03;;;;;;;-5.36;59.46;98004.16;1740575;82;21039;-83
2022/03/11 03:15:01;;;;;;;13.22;9.05;;;;;;;-5.38;58.47;98005.05;1740925;81;20991;-83
2022/03/11 03:17:28;;;;;;;13.20;9.13;;;;;;;-5.41;58.68;98000.08;1740680;82;20982;-83
2022/03/11 03:19:54;;;;;;;14.65;8.08;;;;;;;-5.47;58.53;98006.16;1740982;82;21056;-83
2022/03/11 03:22:20;;;;;;;15.20;9.65;;;;;;;-5.53;57.13;98003.37;1740819;82;21085;-83
2022/03/11 03:24:47;;;;;;;12.55;9.20;;;;;;;-5.50;58.68;98003.28;1740921;82;21097;-83
2022/03/11 03:27:13;;;;;;;12.68;9.50;;;;;;;-5.47;59.15;97999.83;1740838;82;21052;-83
2022/03/11 03:29:38;;;;;;;12.63;9.03;;;;;;;-5.49;58.99;98001.14;1749109;81;21100;-83
2022/03/11 03:32:05;;;;;;;17.85;11.03;;;;;;;-5.46;59.23;98002.75;1754610;82;21329;-83
2022/03/11 03:34:35;;;;;;;11.30;8.40;;;;;;;-5.45;58.26;98000.61;1754857;82;20973;-83
2022/03/11 03:37:07;;;;;;;14.55;10.60;;;;;;;-5.45;58.68;97996.81;1754763;82;21352;-83
2022/03/11 03:39:37;;;;;;;15.60;10.28;;;;;;;-5.53;58.21;97994.52;1754747;82;21037;-83
2022/03/11 03:42:03;;;;;;;14.20;9.43;;;;;;;-5.58;57.90;97998.03;1753111;82;21049;-83
2022/03/11 03:44:29;;;;;;;17.87;11.50;;;;;;;-5.63;57.94;97996.91;1754559;82;21000;-83
2022/03/11 03:46:55;;;;;;;11.28;8.80;;;;;;;-5.75;58.76;97997.23;1754757;82;21326;-83
2022/03/11 03:49:21;;;;;;;11.03;8.20;;;;;;;-5.82;57.36;97988.98;1754060;82;21047;-83
2022/03/11 03:51:47;;;;;;;15.03;10.25;;;;;;;-5.74;57.14;97995.09;1754612;82;21055;-83
2022/03/11 03:54:13;;;;;;;8.75;7.05;;;;;;;-5.72;57.80;97979.42;1754715;82;22117;-83
2022/03/11 03:56:42;;;;;;;10.20;7.25;;;;;;;-5.69;55.82;97989.48;1754665;82;21095;-83
2022/03/11 03:59:08;;;;;;;8.10;7.10;;;;;;;-5.51;54.97;97974.20;1753942;82;21418;-83
2022/03/11 04:01:35;;;;;;;16.50;11.60;;;;;;;-5.40;54.70;97986.10;1754478;82;21310;-83
2022/03/11 04:04:02;;;;;;;9.83;7.87;;;;;;;-5.37;55.83;97984.77;1753768;82;21466;-83
2022/03/11 04:06:30;;;;;;;7.05;6.30;;;;;;;-5.40;54.32;97981.47;1754692;82;21039;-83
2022/03/11 04:08:56;;;;;;;8.30;7.10;;;;;;;-5.37;54.48;97982.64;1754572;82;20973;-83
2022/03/11 04:11:27;;;;;;;8.08;7.03;;;;;;;-5.31;54.65;97988.81;1754214;82;21013;-83
2022/03/11 04:13:54;;;;;;;8.33;6.85;;;;;;;-5.25;54.23;97994.52;1754452;82;21470;-83
2022/03/11 04:16:20;;;;;;;8.05;7.08;;;;;;;-5.19;53.14;97991.00;1754775;82;21040;-83
2022/03/11 04:18:47;;;;;;;11.93;8.63;;;;;;;-5.09;53.15;97991.53;1753089;82;21056;-83
2022/03/11 04:21:13;;;;;;;10.72;7.92;;;;;;;-5.07;54.52;97990.61;1753089;82;21008;-83
2022/03/11 04:23:41;;;;;;;13.55;10.05;;;;;;;-5.07;54.13;97998.65;1754664;82;21443;-83
2022/03/11 04:26:06;;;;;;;10.25;7.67;;;;;;;-5.14;54.41;97989.14;1754712;82;21040;-83
2022/03/11 04:28:32;;;;;;;7.85;7.03;;;;;;;-5.17;53.39;97993.88;1754165;81;21327;-83
2022/03/11 04:30:58;;;;;;;10.95;7.78;;;;;;;-5.17;52.99;97991.77;1741068;82;21009;-82
2022/03/11 04:33:25;;;;;;;13.40;9.60;;;;;;;-5.11;53.17;97993.28;1740986;82;21380;-83
2022/03/11 04:35:51;;;;;;;16.60;9.95;;;;;;;-5.12;53.60;97994.99;1741108;82;20989;-83
2022/03/11 04:38:17;;;;;;;17.07;10.93;;;;;;;-5.15;53.58;98000.98;1740645;82;21021;-83
2022/03/11 04:40:43;;;;;;;15.68;10.35;;;;;;;-5.15;54.61;98003.96;1741107;81;21010;-83
2022/03/11 04:43:08;;;;;;;23.00;12.18;;;;;;;-5.22;54.08;97997.40;1741020;81;20985;-83
2022/03/11 04:45:35;;;;;;;14.75;10.28;;;;;;;-5.22;54.41;97998.66;1740941;81;20997;-83
2022/03/11 04:48:01;;;;;;;12.43;8.95;;;;;;;-5.24;54.83;98003.78;1736143;81;21045;-83
2022/03/11 04:50:26;;;;;;;15.35;10.38;;;;;;;-5.29;54.30;98004.80;1740998;82;21105;-83
2022/03/11 04:52:52;;;;;;;11.28;8.15;;;;;;;-5.33;54.49;97999.00;1740861;82;21101;-83
2022/03/11 04:55:19;;;;;;;8.90;7.90;;;;;;;-5.35;53.93;98003.72;1740832;82;21358;-83
2022/03/11 04:57:45;;;;;;;12.43;8.85;;;;;;;-5.36;54.31;98000.36;1740868;82;21503;-83
2022/03/11 05:00:12;;;;;;;17.12;11.95;;;;;;;-5.30;54.58;98012.84;1740819;82;21049;-83
2022/03/11 05:02:40;;;;;;;14.20;11.05;;;;;;;-5.21;54.82;98010.45;1740822;82;21045;-83
2022/03/11 05:05:07;;;;;;;22.15;14.10;;;;;;;-5.14;54.81;98010.69;1741033;81;21093;-83
2022/03/11 05:07:33;;;;;;;28.27;14.98;;;;;;;-5.07;55.01;98017.22;1740961;81;21384;-83
2022/03/11 05:10:00;;;;;;;24.25;14.60;;;;;;;-5.05;55.12;98016.73;1740770;82;21021;-83
2022/03/11 05:12:26;;;;;;;21.82;16.32;;;;;;;-5.05;55.04;98020.53;1740906;81;21028;-83
2022/03/11 05:14:52;;;;;;;23.42;17.07;;;;;;;-5.06;54.94;98013.80;1740909;81;21020;-83
2022/03/11 05:17:18;;;;;;;21.62;13.90;;;;;;;-5.09;54.88;98009.27;1741302;82;21032;-83
2022/03/11 05:19:44;;;;;;;20.05;14.43;;;;;;;-5.08;54.77;98007.95;1740977;82;21016;-83
2022/03/11 05:22:11;;;;;;;22.58;15.85;;;;;;;-5.08;54.86;98013.47;1740914;81;21065;-83
2022/03/11 05:24:39;;;;;;;22.35;14.30;;;;;;;-5.11;54.75;98007.23;1740570;82;21440;-83
2022/03/11 05:27:06;;;;;;;22.10;14.60;;;;;;;-5.15;54.72;98006.49;1719015;82;21561;-83
2022/03/11 05:29:32;;;;;;;17.15;13.18;;;;;;;-5.17;54.88;98008.25;1745462;81;21431;-83
2022/03/11 05:32:00;;;;;;;21.10;13.98;;;;;;;-5.22;54.46;98010.06;1754281;82;21028;-83
2022/03/11 05:34:26;;;;;;;19.95;13.28;;;;;;;-5.22;54.87;98018.50;1754590;82;20969;-83
2022/03/11 05:36:52;;;;;;;21.12;13.13;;;;;;;-5.26;54.84;98014.41;1754406;82;21017;-83
2022/03/11 05:39:17;;;;;;;19.95;13.55;;;;;;;-5.21;55.32;98019.33;1754421;82;21319;-83
2022/03/11 05:41:44;;;;;;;21.17;13.28;;;;;;;-5.17;55.17;98028.08;1754622;82;21024;-83
2022/03/11 05:44:10;;;;;;;25.12;13.55;;;;;;;-5.15;55.13;98026.77;1754500;82;21359;-83
2022/03/11 05:46:36;;;;;;;24.27;13.72;;;;;;;-5.14;54.98;98024.19;1732394;80;20955;-83
2022/03/11 05:49:02;;;;;;;26.50;16.73;;;;;;;-5.14;55.27;98022.09;1752467;80;21991;-83
2022/03/11 05:51:28;;;;;;;39.05;23.95;;;;;;;-5.13;55.20;98018.68;1754474;82;21032;-83
2022/03/11 05:53:53;;;;;;;40.12;26.12;;;;;;;-5.11;55.42;98025.80;1754770;82;20981;-83
2022/03/11 05:56:20;;;;;;;36.77;25.30;;;;;;;-5.14;55.23;98028.42;1754730;82;21363;-83
2022/03/11 05:58:46;;;;;;;32.60;19.92;;;;;;;-5.14;55.67;98030.52;1754495;82;20981;-83
2022/03/11 06:01:12;;;;;;;28.90;17.10;;;;;;;-5.16;55.63;98027.65;1754613;82;20957;-83
2022/03/11 06:03:38;;;;;;;26.52;16.00;;;;;;;-5.18;55.66;98030.67;1754041;82;21032;-83
2022/03/11 06:06:03;;;;;;;23.10;14.35;;;;;;;-5.22;55.73;98031.17;1754756;82;20973;-83
2022/03/11 06:08:29;;;;;;;26.42;14.95;;;;;;;-5.24;55.82;98030.39;1754586;82;21292;-83
2022/03/11 06:10:56;;;;;;;23.60;15.13;;;;;;;-5.24;55.93;98030.39;1754353;82;21435;-83
2022/03/11 06:13:22;;;;;;;19.92;12.40;;;;;;;-5.23;56.08;98029.52;1754269;82;21017;-83
2022/03/11 06:15:48;;;;;;;19.27;12.75;;;;;;;-5.24;56.21;98040.96;1729674;82;20980;-83
2022/03/11 06:18:15;;;;;;;14.75;10.50;;;;;;;-5.22;56.28;98040.03;1754467;82;20996;-83
2022/03/11 06:20:41;;;;;;;14.60;10.20;;;;;;;-5.19;56.43;98042.95;1754763;82;20993;-83
2022/03/11 06:23:07;;;;;;;15.05;9.10;;;;;;;-5.21;56.56;98040.87;1754518;82;21009;-83
2022/03/11 06:25:33;;;;;;;15.58;10.70;;;;;;;-5.21;56.53;98056.07;1754669;82;21036;-83
2022/03/11 06:27:58;;;;;;;20.52;11.60;;;;;;;-5.21;56.52;98050.59;1754560;82;21099;-83
2022/03/11 06:30:24;;;;;;;21.65;14.15;;;;;;;-5.25;56.57;98046.47;1754437;81;21084;-83
2022/03/11 06:32:51;;;;;;;27.85;16.70;;;;;;;-5.22;56.85;98045.55;1754680;82;21412;-83
2022/03/11 06:35:17;;;;;;;27.40;17.23;;;;;;;-5.23;57.14;98046.42;1754367;82;21032;-83
2022/03/11 06:37:44;;;;;;;30.27;16.00;;;;;;;-5.16;57.55;98056.35;1754552;82;21040;-83
2022/03/11 06:40:11;;;;;;;31.97;17.95;;;;;;;-5.11;57.55;98047.78;1753806;82;20989;-83
2022/03/11 06:42:38;;;;;;;30.95;18.07;;;;;;;-5.12;57.25;98049.92;1754596;82;20993;-82
2022/03/11 06:45:06;;;;;;;32.58;19.60;;;;;;;-5.09;57.24;98054.45;1754625;82;21047;-84
2022/03/11 06:47:33;;;;;;;29.72;19.30;;;;;;;-5.01;57.81;98052.55;1754175;80;21081;-83
2022/03/11 06:49:58;;;;;;;33.45;18.32;;;;;;;-4.90;57.78;98050.50;1753839;82;21004;-83
2022/03/11 06:52:24;;;;;;;31.00;17.23;;;;;;;-4.88;57.38;98056.81;1753134;82;21384;-83
2022/03/11 06:54:50;;;;;;;27.73;17.48;;;;;;;-4.86;57.53;98056.33;1753218;82;20934;-83
2022/03/11 06:57:17;;;;;;;27.10;16.40;;;;;;;-4.79;57.29;98055.70;1752455;82;21044;-83
2022/03/11 06:59:45;;;;;;;23.05;15.98;;;;;;;-4.70;57.23;98054.16;1752942;82;21004;-83
2022/03/11 07:02:11;;;;;;;33.80;20.90;;;;;;;-4.70;57.42;98054.16;1752407;82;21381;-83
2022/03/11 07:04:36;;;;;;;27.20;16.48;;;;;;;-4.65;57.13;98054.40;1752947;82;20994;-83
2022/03/11 07:07:03;;;;;;;41.28;25.25;;;;;;;-4.61;57.51;98061.47;1753033;82;21013;-83
2022/03/11 07:09:29;;;;;;;27.27;16.27;;;;;;;-4.54;57.08;98065.05;1752893;82;21005;-82
2022/03/11 07:12:01;;;;;;;30.55;16.55;;;;;;;-4.41;57.96;98063.38;1751745;82;21113;-83
2022/03/11 07:14:27;;;;;;;25.55;14.83;;;;;;;-4.28;57.82;98062.94;1752926;80;20982;-82
2022/03/11 07:16:53;;;;;;;25.95;16.77;;;;;;;-4.27;57.54;98065.86;1752355;82;21040;-83
2022/03/11 07:19:19;;;;;;;21.82;13.72;;;;;;;-4.18;57.60;98068.56;1752860;82;21028;-83
2022/03/11 07:21:45;;;;;;;30.70;18.40;;;;;;;-4.07;58.10;98063.11;1753009;82;21448;-83
2022/03/11 07:24:11;;;;;;;33.58;17.10;;;;;;;-3.98;57.32;98063.64;1752904;82;21095;-83
2022/03/11 07:26:36;;;;;;;26.82;15.65;;;;;;;-3.88;57.95;98069.26;1753046;82;21032;-82
2022/03/11 07:29:02;;;;;;;20.70;15.78;;;;;;;-3.78;57.73;98064.67;1752964;82;21017;-83
2022/03/11 07:31:28;;;;;;;26.90;17.00;;;;;;;-3.74;57.18;98053.11;1753139;82;21025;-83
2022/03/11 07:33:55;;;;;;;29.92;17.57;;;;;;;-3.69;57.17;98056.31;1753317;82;21108;-83
2022/03/11 07:36:21;;;;;;;30.27;19.73;;;;;;;-3.59;57.45;98059.34;1753109;82;21052;-83
2022/03/11 07:38:48;;;;;;;33.13;21.55;;;;;;;-3.48;57.23;98060.25;1753111;82;20974;-83
2022/03/11 07:41:16;;;;;;;36.83;21.77;;;;;;;-3.40;57.07;98062.09;1727766;82;21403;-83
2022/03/11 07:43:44;;;;;;;44.13;24.02;;;;;;;-3.50;56.55;98022.19;1752058;82;20986;-83
2022/03/11 07:46:11;;;;;;;41.37;21.95;;;;;;;-3.17;56.30;98067.61;1753103;82;20950;-83
2022/03/11 07:48:38;;;;;;;36.33;20.85;;;;;;;-3.13;56.35;98070.41;1726980;82;21375;-83
2022/03/11 07:51:03;;;;;;;37.45;21.85;;;;;;;-3.05;56.31;98067.99;1752880;82;20973;-83
2022/03/11 07:53:29;;;;;;;40.12;22.98;;;;;;;-2.90;56.87;98073.40;1727927;82;21016;-83
2022/03/11 07:55:55;;;;;;;37.65;24.35;;;;;;;-2.76;56.61;98078.35;1754704;80;21413;-83
2022/03/11 07:58:21;;;;;;;34.08;22.45;;;;;;;-2.61;56.54;98079.45;1754499;82;21087;-83
2022/03/11 08:00:52;;;;;;;40.65;24.30;;;;;;;-2.51;56.29;98080.77;1754742;82;21016;-83
2022/03/11 08:03:18;;;;;;;37.65;22.15;;;;;;;-2.43;56.28;98080.05;1754518;82;20994;-83
2022/03/11 08:05:44;;;;;;;37.25;20.30;;;;;;;-2.33;55.85;98077.94;1753290;82;20938;-83
2022/03/11 08:08:10;;;;;;;24.18;15.05;;;;;;;-2.25;55.92;98079.75;1754814;82;20973;-83
2022/03/11 08:10:39;;;;;;;31.68;18.35;;;;;;;-2.33;53.46;98083.48;1754584;82;21040;-83
2022/03/11 08:13:06;;;;;;;30.48;17.62;;;;;;;-2.39;54.37;98076.09;1752221;82;20990;-83
2022/03/11 08:15:33;;;;;;;27.62;15.58;;;;;;;-2.34;54.45;98080.55;1754040;82;20969;-83
2022/03/11 08:18:00;;;;;;;29.87;18.23;;;;;;;-2.28;54.02;98075.20;1729131;82;21415;-83
2022/03/11 08:20:26;;;;;;;30.75;17.45;;;;;;;-2.26;54.23;98079.38;1754346;82;20954;-83
2022/03/11 08:22:51;;;;;;;29.57;18.45;;;;;;;-2.17;54.40;98074.34;1754852;82;20941;-83
2022/03/11 08:25:18;;;;;;;21.65;14.55;;;;;;;-2.15;52.90;98073.38;1729494;82;20977;-83
2022/03/11 08:27:44;;;;;;;27.98;18.05;;;;;;;-2.19;52.93;98079.95;1754644;82;21032;-83
2022/03/11 08:30:10;;;;;;;27.37;16.67;;;;;;;-2.16;53.83;98075.55;1754743;82;20973;-83
2022/03/11 08:32:37;;;;;;;24.55;15.08;;;;;;;-2.02;53.91;98073.72;1754602;82;21443;-83
2022/03/11 08:35:04;;;;;;;31.23;17.67;;;;;;;-1.93;53.17;98066.98;1754774;82;21024;-83
2022/03/11 08:37:30;;;;;;;26.10;15.38;;;;;;;-1.93;53.42;98069.98;1754726;82;20984;-83
2022/03/11 08:39:55;;;;;;;26.12;15.30;;;;;;;-1.88;53.11;98066.34;1754792;82;21053;-82
2022/03/11 08:42:21;;;;;;;26.57;15.58;;;;;;;-1.86;53.50;98065.83;1754583;82;21040;-83
2022/03/11 08:44:47;;;;;;;23.55;14.15;;;;;;;-1.81;52.73;98063.08;1754277;82;21384;-83
2022/03/11 08:47:13;;;;;;;22.45;14.47;;;;;;;-1.69;51.94;98056.65;1729442;82;21012;-83
2022/03/11 08:49:39;;;;;;;21.10;13.38;;;;;;;-1.66;51.81;98059.88;1754647;82;21446;-83
2022/03/11 08:52:05;;;;;;;19.55;10.82;;;;;;;-1.60;51.45;98056.27;1754752;82;21309;-83
2022/03/11 08:54:31;;;;;;;23.40;14.80;;;;;;;-1.51;51.17;98048.20;1751021;80;21022;-84
2022/03/11 08:56:57;;;;;;;20.43;13.18;;;;;;;-1.40;52.10;98047.75;1754143;82;21338;-84
2022/03/11 08:59:22;;;;;;;23.67;13.78;;;;;;;-1.33;50.93;98057.59;1754833;82;21359;-83
2022/03/11 09:01:48;;;;;;;19.70;12.40;;;;;;;-1.29;51.37;98051.49;1753090;82;21083;-83
2022/03/11 09:04:14;;;;;;;19.50;11.73;;;;;;;-1.16;50.19;98043.27;1754870;82;21037;-84
2022/03/11 09:06:40;;;;;;;22.13;13.60;;;;;;;-1.07;50.03;98046.25;1754885;82;21080;-83
2022/03/11 09:09:05;;;;;;;16.82;11.15;;;;;;;-1.02;50.11;98049.86;1754908;82;21411;-83
2022/03/11 09:11:32;;;;;;;18.10;11.30;;;;;;;-0.97;49.90;98047.50;1753328;82;21085;-83
2022/03/11 09:13:58;;;;;;;17.98;12.95;;;;;;;-0.89;49.17;98042.48;1752633;82;21064;-83
2022/03/11 09:16:24;;;;;;;21.95;12.73;;;;;;;-0.80;50.22;98042.08;1752973;82;21064;-83
2022/03/11 09:18:49;;;;;;;14.90;10.25;;;;;;;-0.69;49.47;98041.93;1752880;82;20962;-83
2022/03/11 09:21:16;;;;;;;19.90;11.50;;;;;;;-0.65;47.71;98042.64;1727813;82;20965;-82
2022/03/11 09:23:42;;;;;;;19.20;11.93;;;;;;;-0.64;47.46;98028.52;1752867;82;21005;-83
2022/03/11 09:26:08;;;;;;;15.25;10.38;;;;;;;-0.62;48.18;98031.83;1753346;82;21012;-83
2022/03/11 09:28:33;;;;;;;18.40;10.75;;;;;;;-0.57;47.27;98027.77;1727890;82;21478;-83
2022/03/11 09:31:01;;;;;;;21.50;12.82;;;;;;;-0.45;48.68;98029.75;1745589;82;21040;-83
2022/03/11 09:33:28;;;;;;;17.80;11.50;;;;;;;-0.26;49.23;98032.23;1739104;82;21430;-83
2022/03/11 09:35:54;;;;;;;20.08;12.60;;;;;;;-0.14;48.51;98030.38;1739111;82;21018;-83
2022/03/11 09:38:19;;;;;;;19.07;12.00;;;;;;;-0.02;48.79;98032.75;1738956;82;21483;-83
2022/03/11 09:40:45;;;;;;;20.35;12.15;;;;;;;0.09;48.71;98038.16;1739424;82;20994;-83
2022/03/11 09:43:15;;;;;;;19.12;11.93;;;;;;;0.18;47.28;98031.78;1739368;82;21009;-83
2022/03/11 09:45:41;;;;;;;22.15;13.13;;;;;;;0.13;46.95;98029.89;1739413;82;21398;-83
2022/03/11 09:48:07;;;;;;;21.65;13.22;;;;;;;0.16;46.56;98025.47;1739518;82;21046;-83
2022/03/11 09:50:35;;;;;;;20.05;11.40;;;;;;;0.16;47.04;98023.34;1739465;82;21061;-83
2022/03/11 09:53:02;;;;;;;17.50;11.03;;;;;;;0.23;46.17;98029.81;1739155;82;21407;-83
2022/03/11 09:55:27;;;;;;;18.77;11.50;;;;;;;0.16;45.25;98034.42;1739791;81;20990;-83
2022/03/11 09:57:55;;;;;;;18.17;11.43;;;;;;;0.20;46.59;98032.08;1740932;81;21049;-83
2022/03/11 10:00:20;;;;;;;18.98;11.95;;;;;;;0.30;46.23;98037.08;1740839;82;20970;-83
2022/03/11 10:02:46;;;;;;;14.90;9.55;;;;;;;0.44;46.53;98033.00;1741047;82;20970;-83
2022/03/11 10:05:13;;;;;;;12.78;8.90;;;;;;;0.49;44.50;98031.05;1740818;82;20989;-82
2022/03/11 10:07:39;;;;;;;16.10;11.28;;;;;;;0.54;43.88;98032.91;1740876;82;21040;-83
2022/03/11 10:10:16;;;;;;;13.18;9.58;;;;;;;0.63;45.79;98032.42;1741001;82;21033;-83
2022/03/11 10:12:46;;;;;;;14.95;10.20;;;;;;;0.71;44.16;98033.31;1740904;82;21057;-83
2022/03/11 10:15:12;;;;;;;13.40;8.88;;;;;;;0.59;43.18;98029.20;1740768;81;20978;-83
2022/03/11 10:17:44;;;;;;;14.23;9.75;;;;;;;0.50;42.67;98039.92;1741141;82;21049;-83
2022/03/11 10:20:12;;;;;;;16.05;10.00;;;;;;;0.52;44.13;98035.55;1740942;82;20977;-83
2022/03/11 10:22:40;;;;;;;13.35;8.58;;;;;;;0.59;44.44;98036.05;1740876;82;20977;-83
2022/03/11 10:25:25;;;;;;;15.25;9.08;;;;;;;0.62;42.84;98044.02;1741172;82;21022;-83
2022/03/11 10:28:09;;;;;;;12.63;8.35;;;;;;;0.60;42.68;98051.31;1741163;82;21459;-83
2022/03/11 10:30:40;;;;;;;15.65;9.63;;;;;;;0.63;42.76;98038.81;1721333;82;21443;-83
2022/03/11 10:33:13;;;;;;;11.22;6.75;;;;;;;0.65;43.07;98038.73;1751338;82;21051;-83
2022/03/11 10:35:47;;;;;;;14.43;8.78;;;;;;;0.73;42.64;98020.81;1751134;82;21403;-83
2022/03/11 10:38:17;;;;;;;15.20;10.05;;;;;;;0.79;42.76;98025.59;1751211;80;21546;-83
2022/03/11 10:40:58;;;;;;;14.50;8.85;;;;;;;0.85;43.38;98034.24;1751082;82;21344;-83
2022/03/11 10:43:31;;;;;;;13.13;8.73;;;;;;;0.98;43.18;98027.20;1751165;82;20993;-83
2022/03/11 10:46:09;;;;;;;14.53;9.33;;;;;;;1.08;43.75;98020.20;1751285;82;21360;-83
2022/03/11 10:48:51;;;;;;;10.55;7.22;;;;;;;1.20;43.22;98025.13;1751237;82;21021;-82
2022/03/11 10:51:34;;;;;;;13.62;8.55;;;;;;;1.18;39.69;98023.93;1751324;82;21041;-83
2022/03/11 10:54:12;;;;;;;14.20;9.38;;;;;;;1.13;42.26;98028.45;1750889;80;21109;-83
2022/03/11 10:56:43;;;;;;;12.63;8.10;;;;;;;1.12;41.48;98018.30;1721363;82;21008;-83
2022/03/11 10:59:23;;;;;;;11.00;8.30;;;;;;;1.19;41.97;98016.62;1751186;82;21435;-83
2022/03/11 11:01:53;;;;;;;13.88;9.05;;;;;;;1.05;42.00;97984.99;1751123;82;21105;-83
2022/03/11 11:04:19;;;;;;;15.43;9.40;;;;;;;1.30;41.69;98017.75;1751064;82;21048;-83
2022/03/11 11:06:45;;;;;;;14.78;9.03;;;;;;;1.28;41.27;98011.43;1751313;82;21404;-82
2022/03/11 11:09:12;;;;;;;12.28;8.80;;;;;;;1.24;41.72;98008.67;1751126;82;21009;-83
2022/03/11 11:11:40;;;;;;;9.63;6.17;;;;;;;1.33;40.85;98012.48;1751233;80;21025;-82
2022/03/11 11:14:12;;;;;;;15.25;9.48;;;;;;;1.38;39.66;98019.45;1751324;82;20949;-83
2022/03/11 11:16:41;;;;;;;13.15;8.93;;;;;;;1.46;41.34;98014.70;1751539;81;21052;-83
2022/03/11 11:19:12;;;;;;;13.32;8.23;;;;;;;1.50;40.86;98014.47;1751082;82;21028;-83
2022/03/11 11:21:43;;;;;;;11.57;7.45;;;;;;;1.57;39.36;98011.10;1751242;82;21000;-82